sensor_id;sensor_type;location;lat;lon;timestamp;P1;durP1;ratioP1;P2;durP2;ratioP2
79178;SDS011;68608;49.904;16.436;2023-08-07T00:00:34;1.85;;;0.45;;
79178;SDS011;68608;49.904;16.436;2023-08-07T00:03:00;0.60;;;0.60;;
79178;SDS011;68608;49.904;16.436;2023-08-07T00:05:27;0.50;;;0.50;;
79178;SDS011;68608;49.904;16.436;2023-08-07T00:07:53;0.50;;;0.45;;
79178;SDS011;68608;49.904;16.436;2023-08-07T00:10:19;0.55;;;0.55;;
79178;SDS011;68608;49.904;16.436;2023-08-07T00:12:45;0.60;;;0.60;;
79178;SDS011;68608;49.904;16.436;2023-08-07T00:15:11;0.50;;;0.50;;
79178;SDS011;68608;49.904;16.436;2023-08-07T00:17:37;0.73;;;0.55;;
79178;SDS011;68608;49.904;16.436;2023-08-07T00:20:04;1.55;;;0.55;;
79178;SDS011;68608;49.904;16.436;2023-08-07T00:22:30;0.40;;;0.40;;
79178;SDS011;68608;49.904;16.436;2023-08-07T00:24:56;0.60;;;0.60;;
79178;SDS011;68608;49.904;16.436;2023-08-07T00:27:22;0.47;;;0.40;;
79178;SDS011;68608;49.904;16.436;2023-08-07T00:29:48;0.50;;;0.50;;
79178;SDS011;68608;49.904;16.436;2023-08-07T00:32:15;0.63;;;0.40;;
79178;SDS011;68608;49.904;16.436;2023-08-07T00:34:41;0.75;;;0.52;;
79178;SDS011;68608;49.904;16.436;2023-08-07T00:37:07;0.77;;;0.70;;
79178;SDS011;68608;49.904;16.436;2023-08-07T00:39:33;0.63;;;0.50;;
79178;SDS011;68608;49.904;16.436;2023-08-07T00:41:59;0.55;;;0.50;;
79178;SDS011;68608;49.904;16.436;2023-08-07T00:44:25;0.60;;;0.60;;
79178;SDS011;68608;49.904;16.436;2023-08-07T00:46:51;0.40;;;0.40;;
79178;SDS011;68608;49.904;16.436;2023-08-07T00:49:17;0.93;;;0.60;;
79178;SDS011;68608;49.904;16.436;2023-08-07T00:51:44;0.43;;;0.43;;
79178;SDS011;68608;49.904;16.436;2023-08-07T00:54:11;0.55;;;0.55;;
79178;SDS011;68608;49.904;16.436;2023-08-07T00:56:37;0.50;;;0.50;;
79178;SDS011;68608;49.904;16.436;2023-08-07T00:59:04;0.85;;;0.47;;
79178;SDS011;68608;49.904;16.436;2023-08-07T01:01:31;0.65;;;0.60;;
79178;SDS011;68608;49.904;16.436;2023-08-07T01:03:57;0.47;;;0.47;;
79178;SDS011;68608;49.904;16.436;2023-08-07T01:06:23;0.38;;;0.38;;
79178;SDS011;68608;49.904;16.436;2023-08-07T01:08:49;0.73;;;0.73;;
79178;SDS011;68608;49.904;16.436;2023-08-07T01:16:35;0.57;;;0.50;;
79178;SDS011;68608;49.904;16.436;2023-08-07T01:19:03;1.65;;;0.50;;
79178;SDS011;68608;49.904;16.436;2023-08-07T01:21:31;0.70;;;0.52;;
79178;SDS011;68608;49.904;16.436;2023-08-07T01:23:58;0.57;;;0.57;;
79178;SDS011;68608;49.904;16.436;2023-08-07T01:26:24;0.40;;;0.40;;
79178;SDS011;68608;49.904;16.436;2023-08-07T01:28:58;0.60;;;0.50;;
79178;SDS011;68608;49.904;16.436;2023-08-07T01:31:28;0.50;;;0.50;;
79178;SDS011;68608;49.904;16.436;2023-08-07T01:33:57;0.40;;;0.40;;
79178;SDS011;68608;49.904;16.436;2023-08-07T01:36:24;0.40;;;0.40;;
79178;SDS011;68608;49.904;16.436;2023-08-07T01:38:53;0.57;;;0.57;;
79178;SDS011;68608;49.904;16.436;2023-08-07T01:41:20;1.17;;;0.65;;
79178;SDS011;68608;49.904;16.436;2023-08-07T01:43:46;0.40;;;0.40;;
79178;SDS011;68608;49.904;16.436;2023-08-07T01:46:12;1.90;;;0.50;;
79178;SDS011;68608;49.904;16.436;2023-08-07T01:48:38;1.40;;;0.50;;
79178;SDS011;68608;49.904;16.436;2023-08-07T01:51:04;1.00;;;0.40;;
79178;SDS011;68608;49.904;16.436;2023-08-07T01:53:30;1.75;;;0.50;;
79178;SDS011;68608;49.904;16.436;2023-08-07T01:55:56;6.43;;;0.57;;
79178;SDS011;68608;49.904;16.436;2023-08-07T01:58:22;0.60;;;0.60;;
79178;SDS011;68608;49.904;16.436;2023-08-07T02:00:48;0.50;;;0.50;;
79178;SDS011;68608;49.904;16.436;2023-08-07T02:03:14;0.40;;;0.40;;
79178;SDS011;68608;49.904;16.436;2023-08-07T02:05:41;1.63;;;0.70;;
79178;SDS011;68608;49.904;16.436;2023-08-07T02:08:07;1.77;;;0.50;;
79178;SDS011;68608;49.904;16.436;2023-08-07T02:10:33;0.50;;;0.50;;
79178;SDS011;68608;49.904;16.436;2023-08-07T02:12:59;0.40;;;0.40;;
79178;SDS011;68608;49.904;16.436;2023-08-07T02:15:25;1.27;;;0.60;;
79178;SDS011;68608;49.904;16.436;2023-08-07T02:17:51;1.50;;;0.50;;
79178;SDS011;68608;49.904;16.436;2023-08-07T02:20:17;0.43;;;0.43;;
79178;SDS011;68608;49.904;16.436;2023-08-07T02:22:43;0.35;;;0.35;;
79178;SDS011;68608;49.904;16.436;2023-08-07T02:25:09;2.42;;;0.85;;
79178;SDS011;68608;49.904;16.436;2023-08-07T02:27:35;0.40;;;0.40;;
79178;SDS011;68608;49.904;16.436;2023-08-07T02:30:01;0.30;;;0.30;;
79178;SDS011;68608;49.904;16.436;2023-08-07T02:32:28;0.50;;;0.50;;
79178;SDS011;68608;49.904;16.436;2023-08-07T02:34:54;0.40;;;0.40;;
79178;SDS011;68608;49.904;16.436;2023-08-07T02:37:21;0.55;;;0.50;;
79178;SDS011;68608;49.904;16.436;2023-08-07T02:39:47;0.60;;;0.60;;
79178;SDS011;68608;49.904;16.436;2023-08-07T02:42:13;0.50;;;0.50;;
79178;SDS011;68608;49.904;16.436;2023-08-07T02:44:39;0.70;;;0.60;;
79178;SDS011;68608;49.904;16.436;2023-08-07T02:47:05;0.57;;;0.50;;
79178;SDS011;68608;49.904;16.436;2023-08-07T02:49:31;0.65;;;0.50;;
79178;SDS011;68608;49.904;16.436;2023-08-07T02:51:58;0.63;;;0.63;;
79178;SDS011;68608;49.904;16.436;2023-08-07T02:54:24;0.50;;;0.50;;
79178;SDS011;68608;49.904;16.436;2023-08-07T02:56:50;0.40;;;0.40;;
79178;SDS011;68608;49.904;16.436;2023-08-07T02:59:16;0.85;;;0.50;;
79178;SDS011;68608;49.904;16.436;2023-08-07T03:01:43;1.00;;;0.55;;
79178;SDS011;68608;49.904;16.436;2023-08-07T03:04:09;0.43;;;0.43;;
79178;SDS011;68608;49.904;16.436;2023-08-07T03:06:35;0.57;;;0.57;;
79178;SDS011;68608;49.904;16.436;2023-08-07T03:09:01;0.90;;;0.88;;
79178;SDS011;68608;49.904;16.436;2023-08-07T03:11:27;0.43;;;0.43;;
79178;SDS011;68608;49.904;16.436;2023-08-07T03:13:53;1.27;;;0.50;;
79178;SDS011;68608;49.904;16.436;2023-08-07T03:16:19;0.40;;;0.40;;
79178;SDS011;68608;49.904;16.436;2023-08-07T03:18:45;0.45;;;0.45;;
79178;SDS011;68608;49.904;16.436;2023-08-07T03:21:11;0.40;;;0.40;;
79178;SDS011;68608;49.904;16.436;2023-08-07T03:23:38;0.47;;;0.47;;
79178;SDS011;68608;49.904;16.436;2023-08-07T03:26:04;0.60;;;0.60;;
79178;SDS011;68608;49.904;16.436;2023-08-07T03:28:30;0.60;;;0.60;;
79178;SDS011;68608;49.904;16.436;2023-08-07T03:30:56;2.05;;;0.85;;
79178;SDS011;68608;49.904;16.436;2023-08-07T03:33:23;0.60;;;0.60;;
79178;SDS011;68608;49.904;16.436;2023-08-07T03:35:49;1.48;;;0.50;;
79178;SDS011;68608;49.904;16.436;2023-08-07T03:38:15;1.27;;;1.17;;
79178;SDS011;68608;49.904;16.436;2023-08-07T03:40:41;0.40;;;0.40;;
79178;SDS011;68608;49.904;16.436;2023-08-07T03:43:07;0.50;;;0.50;;
79178;SDS011;68608;49.904;16.436;2023-08-07T03:45:33;0.57;;;0.57;;
79178;SDS011;68608;49.904;16.436;2023-08-07T03:47:59;0.43;;;0.43;;
79178;SDS011;68608;49.904;16.436;2023-08-07T03:50:25;0.63;;;0.60;;
79178;SDS011;68608;49.904;16.436;2023-08-07T03:52:52;0.40;;;0.40;;
79178;SDS011;68608;49.904;16.436;2023-08-07T03:55:18;0.40;;;0.40;;
79178;SDS011;68608;49.904;16.436;2023-08-07T03:57:44;1.10;;;0.50;;
79178;SDS011;68608;49.904;16.436;2023-08-07T04:00:10;0.40;;;0.40;;
79178;SDS011;68608;49.904;16.436;2023-08-07T04:02:36;1.17;;;0.40;;
79178;SDS011;68608;49.904;16.436;2023-08-07T04:05:02;0.50;;;0.50;;
79178;SDS011;68608;49.904;16.436;2023-08-07T04:07:29;0.45;;;0.45;;
79178;SDS011;68608;49.904;16.436;2023-08-07T04:09:55;0.50;;;0.50;;
79178;SDS011;68608;49.904;16.436;2023-08-07T04:12:21;0.60;;;0.60;;
79178;SDS011;68608;49.904;16.436;2023-08-07T04:14:47;0.50;;;0.50;;
79178;SDS011;68608;49.904;16.436;2023-08-07T04:17:13;0.60;;;0.60;;
79178;SDS011;68608;49.904;16.436;2023-08-07T04:19:39;0.43;;;0.43;;
79178;SDS011;68608;49.904;16.436;2023-08-07T04:22:05;0.50;;;0.50;;
79178;SDS011;68608;49.904;16.436;2023-08-07T04:24:31;0.60;;;0.60;;
79178;SDS011;68608;49.904;16.436;2023-08-07T04:26:57;0.55;;;0.55;;
79178;SDS011;68608;49.904;16.436;2023-08-07T04:29:24;0.50;;;0.50;;
79178;SDS011;68608;49.904;16.436;2023-08-07T04:31:50;0.60;;;0.60;;
79178;SDS011;68608;49.904;16.436;2023-08-07T04:34:16;0.73;;;0.73;;
79178;SDS011;68608;49.904;16.436;2023-08-07T04:36:42;0.80;;;0.80;;
79178;SDS011;68608;49.904;16.436;2023-08-07T04:39:08;0.50;;;0.47;;
79178;SDS011;68608;49.904;16.436;2023-08-07T04:41:34;0.60;;;0.60;;
79178;SDS011;68608;49.904;16.436;2023-08-07T04:44:00;0.77;;;0.77;;
79178;SDS011;68608;49.904;16.436;2023-08-07T04:46:26;0.52;;;0.52;;
79178;SDS011;68608;49.904;16.436;2023-08-07T04:48:52;0.90;;;0.50;;
79178;SDS011;68608;49.904;16.436;2023-08-07T04:51:19;0.60;;;0.60;;
79178;SDS011;68608;49.904;16.436;2023-08-07T04:53:45;0.52;;;0.52;;
79178;SDS011;68608;49.904;16.436;2023-08-07T04:56:11;0.40;;;0.40;;
79178;SDS011;68608;49.904;16.436;2023-08-07T04:58:37;0.47;;;0.47;;
79178;SDS011;68608;49.904;16.436;2023-08-07T05:01:03;0.55;;;0.55;;
79178;SDS011;68608;49.904;16.436;2023-08-07T05:03:29;0.73;;;0.55;;
79178;SDS011;68608;49.904;16.436;2023-08-07T05:05:59;0.60;;;0.52;;
79178;SDS011;68608;49.904;16.436;2023-08-07T05:08:25;0.60;;;0.60;;
79178;SDS011;68608;49.904;16.436;2023-08-07T05:10:52;1.10;;;0.73;;
79178;SDS011;68608;49.904;16.436;2023-08-07T05:13:18;0.32;;;0.32;;
79178;SDS011;68608;49.904;16.436;2023-08-07T05:15:44;0.57;;;0.52;;
79178;SDS011;68608;49.904;16.436;2023-08-07T05:18:12;0.40;;;0.40;;
79178;SDS011;68608;49.904;16.436;2023-08-07T05:20:38;3.05;;;1.98;;
79178;SDS011;68608;49.904;16.436;2023-08-07T05:23:04;1.95;;;1.00;;
79178;SDS011;68608;49.904;16.436;2023-08-07T05:25:31;1.33;;;1.23;;
79178;SDS011;68608;49.904;16.436;2023-08-07T05:27:57;2.22;;;1.40;;
79178;SDS011;68608;49.904;16.436;2023-08-07T05:30:23;0.30;;;0.30;;
79178;SDS011;68608;49.904;16.436;2023-08-07T05:32:49;1.80;;;1.05;;
79178;SDS011;68608;49.904;16.436;2023-08-07T05:35:15;0.30;;;0.30;;
79178;SDS011;68608;49.904;16.436;2023-08-07T05:37:41;2.10;;;0.57;;
79178;SDS011;68608;49.904;16.436;2023-08-07T05:40:07;0.90;;;0.50;;
79178;SDS011;68608;49.904;16.436;2023-08-07T05:42:36;1.08;;;0.50;;
79178;SDS011;68608;49.904;16.436;2023-08-07T05:45:03;0.82;;;0.60;;
79178;SDS011;68608;49.904;16.436;2023-08-07T05:47:29;0.77;;;0.70;;
79178;SDS011;68608;49.904;16.436;2023-08-07T05:49:55;0.40;;;0.40;;
79178;SDS011;68608;49.904;16.436;2023-08-07T05:52:21;0.57;;;0.50;;
79178;SDS011;68608;49.904;16.436;2023-08-07T05:54:47;0.60;;;0.60;;
79178;SDS011;68608;49.904;16.436;2023-08-07T05:57:13;0.85;;;0.50;;
79178;SDS011;68608;49.904;16.436;2023-08-07T05:59:39;0.90;;;0.55;;
79178;SDS011;68608;49.904;16.436;2023-08-07T06:02:05;0.70;;;0.70;;
79178;SDS011;68608;49.904;16.436;2023-08-07T06:04:32;0.45;;;0.45;;
79178;SDS011;68608;49.904;16.436;2023-08-07T06:06:58;0.65;;;0.65;;
79178;SDS011;68608;49.904;16.436;2023-08-07T06:09:24;0.82;;;0.63;;
79178;SDS011;68608;49.904;16.436;2023-08-07T06:11:50;0.40;;;0.40;;
79178;SDS011;68608;49.904;16.436;2023-08-07T06:14:17;1.40;;;1.30;;
79178;SDS011;68608;49.904;16.436;2023-08-07T06:16:43;0.50;;;0.50;;
79178;SDS011;68608;49.904;16.436;2023-08-07T06:19:09;0.77;;;0.77;;
79178;SDS011;68608;49.904;16.436;2023-08-07T06:21:35;0.40;;;0.40;;
79178;SDS011;68608;49.904;16.436;2023-08-07T06:24:01;1.10;;;1.00;;
79178;SDS011;68608;49.904;16.436;2023-08-07T06:26:27;0.80;;;0.80;;
79178;SDS011;68608;49.904;16.436;2023-08-07T06:28:54;0.93;;;0.73;;
79178;SDS011;68608;49.904;16.436;2023-08-07T06:31:20;0.45;;;0.45;;
79178;SDS011;68608;49.904;16.436;2023-08-07T06:33:46;0.60;;;0.60;;
79178;SDS011;68608;49.904;16.436;2023-08-07T06:36:12;0.60;;;0.60;;
79178;SDS011;68608;49.904;16.436;2023-08-07T06:38:38;1.38;;;0.85;;
79178;SDS011;68608;49.904;16.436;2023-08-07T06:41:04;0.90;;;0.90;;
79178;SDS011;68608;49.904;16.436;2023-08-07T06:43:30;0.50;;;0.50;;
79178;SDS011;68608;49.904;16.436;2023-08-07T06:45:57;0.85;;;0.85;;
79178;SDS011;68608;49.904;16.436;2023-08-07T06:48:23;0.77;;;0.77;;
79178;SDS011;68608;49.904;16.436;2023-08-07T06:50:49;0.65;;;0.65;;
79178;SDS011;68608;49.904;16.436;2023-08-07T06:53:16;0.90;;;0.90;;
79178;SDS011;68608;49.904;16.436;2023-08-07T06:55:42;0.52;;;0.52;;
79178;SDS011;68608;49.904;16.436;2023-08-07T06:58:08;0.73;;;0.73;;
79178;SDS011;68608;49.904;16.436;2023-08-07T07:00:35;1.25;;;0.60;;
79178;SDS011;68608;49.904;16.436;2023-08-07T07:03:01;0.60;;;0.50;;
79178;SDS011;68608;49.904;16.436;2023-08-07T07:05:27;0.60;;;0.50;;
79178;SDS011;68608;49.904;16.436;2023-08-07T07:07:53;0.40;;;0.40;;
79178;SDS011;68608;49.904;16.436;2023-08-07T07:10:20;0.60;;;0.60;;
79178;SDS011;68608;49.904;16.436;2023-08-07T07:12:46;0.47;;;0.47;;
79178;SDS011;68608;49.904;16.436;2023-08-07T07:15:13;0.88;;;0.70;;
79178;SDS011;68608;49.904;16.436;2023-08-07T07:17:39;0.50;;;0.50;;
79178;SDS011;68608;49.904;16.436;2023-08-07T07:20:05;0.90;;;0.85;;
79178;SDS011;68608;49.904;16.436;2023-08-07T07:22:34;1.02;;;1.02;;
79178;SDS011;68608;49.904;16.436;2023-08-07T07:25:00;0.60;;;0.60;;
79178;SDS011;68608;49.904;16.436;2023-08-07T07:27:26;0.68;;;0.68;;
79178;SDS011;68608;49.904;16.436;2023-08-07T07:29:52;0.70;;;0.70;;
79178;SDS011;68608;49.904;16.436;2023-08-07T07:32:18;1.65;;;0.52;;
79178;SDS011;68608;49.904;16.436;2023-08-07T07:34:44;0.80;;;0.80;;
79178;SDS011;68608;49.904;16.436;2023-08-07T07:37:11;0.60;;;0.60;;
79178;SDS011;68608;49.904;16.436;2023-08-07T07:39:39;0.85;;;0.85;;
79178;SDS011;68608;49.904;16.436;2023-08-07T07:42:05;2.63;;;0.90;;
79178;SDS011;68608;49.904;16.436;2023-08-07T07:44:31;1.15;;;1.15;;
79178;SDS011;68608;49.904;16.436;2023-08-07T07:46:58;0.80;;;0.80;;
79178;SDS011;68608;49.904;16.436;2023-08-07T07:49:24;1.10;;;1.00;;
79178;SDS011;68608;49.904;16.436;2023-08-07T07:51:50;1.00;;;1.00;;
79178;SDS011;68608;49.904;16.436;2023-08-07T07:54:16;0.73;;;0.73;;
79178;SDS011;68608;49.904;16.436;2023-08-07T07:56:43;0.85;;;0.63;;
79178;SDS011;68608;49.904;16.436;2023-08-07T07:59:09;0.70;;;0.60;;
79178;SDS011;68608;49.904;16.436;2023-08-07T08:01:35;0.70;;;0.70;;
79178;SDS011;68608;49.904;16.436;2023-08-07T08:04:01;0.90;;;0.90;;
79178;SDS011;68608;49.904;16.436;2023-08-07T08:06:27;1.80;;;1.70;;
79178;SDS011;68608;49.904;16.436;2023-08-07T08:08:53;0.85;;;0.85;;
79178;SDS011;68608;49.904;16.436;2023-08-07T08:11:19;1.20;;;1.10;;
79178;SDS011;68608;49.904;16.436;2023-08-07T08:13:45;1.17;;;1.13;;
79178;SDS011;68608;49.904;16.436;2023-08-07T08:16:11;1.10;;;1.00;;
79178;SDS011;68608;49.904;16.436;2023-08-07T08:18:37;1.00;;;1.00;;
79178;SDS011;68608;49.904;16.436;2023-08-07T08:21:03;1.33;;;1.23;;
79178;SDS011;68608;49.904;16.436;2023-08-07T08:23:29;1.15;;;1.15;;
79178;SDS011;68608;49.904;16.436;2023-08-07T08:25:55;2.10;;;1.58;;
79178;SDS011;68608;49.904;16.436;2023-08-07T08:28:21;1.15;;;1.15;;
79178;SDS011;68608;49.904;16.436;2023-08-07T08:30:47;1.90;;;1.80;;
79178;SDS011;68608;49.904;16.436;2023-08-07T08:33:13;1.33;;;1.30;;
79178;SDS011;68608;49.904;16.436;2023-08-07T08:35:40;2.08;;;1.98;;
79178;SDS011;68608;49.904;16.436;2023-08-07T08:38:06;1.88;;;1.77;;
79178;SDS011;68608;49.904;16.436;2023-08-07T08:40:33;2.40;;;2.20;;
79178;SDS011;68608;49.904;16.436;2023-08-07T08:42:59;1.35;;;1.33;;
79178;SDS011;68608;49.904;16.436;2023-08-07T08:45:26;2.88;;;2.67;;
79178;SDS011;68608;49.904;16.436;2023-08-07T08:47:58;1.65;;;1.55;;
79178;SDS011;68608;49.904;16.436;2023-08-07T08:50:26;2.00;;;1.90;;
79178;SDS011;68608;49.904;16.436;2023-08-07T08:52:53;2.15;;;2.05;;
79178;SDS011;68608;49.904;16.436;2023-08-07T08:55:19;2.53;;;2.33;;
79178;SDS011;68608;49.904;16.436;2023-08-07T08:57:46;2.28;;;2.17;;
79178;SDS011;68608;49.904;16.436;2023-08-07T09:00:13;2.97;;;2.67;;
79178;SDS011;68608;49.904;16.436;2023-08-07T09:02:45;3.38;;;3.17;;
79178;SDS011;68608;49.904;16.436;2023-08-07T09:05:11;3.88;;;3.58;;
79178;SDS011;68608;49.904;16.436;2023-08-07T09:07:37;3.45;;;3.15;;
79178;SDS011;68608;49.904;16.436;2023-08-07T09:10:04;4.80;;;4.47;;
79178;SDS011;68608;49.904;16.436;2023-08-07T09:12:31;4.00;;;3.70;;
79178;SDS011;68608;49.904;16.436;2023-08-07T09:14:58;5.30;;;4.63;;
79178;SDS011;68608;49.904;16.436;2023-08-07T09:17:28;4.10;;;3.80;;
79178;SDS011;68608;49.904;16.436;2023-08-07T09:19:55;3.90;;;3.60;;
79178;SDS011;68608;49.904;16.436;2023-08-07T09:22:21;4.82;;;4.30;;
79178;SDS011;68608;49.904;16.436;2023-08-07T09:24:47;3.72;;;3.42;;
79178;SDS011;68608;49.904;16.436;2023-08-07T09:27:14;3.97;;;3.53;;
79178;SDS011;68608;49.904;16.436;2023-08-07T09:29:40;3.38;;;3.08;;
79178;SDS011;68608;49.904;16.436;2023-08-07T09:32:11;3.15;;;2.95;;
79178;SDS011;68608;49.904;16.436;2023-08-07T09:34:41;3.97;;;3.30;;
79178;SDS011;68608;49.904;16.436;2023-08-07T09:37:09;3.60;;;3.30;;
79178;SDS011;68608;49.904;16.436;2023-08-07T09:39:36;3.42;;;2.95;;
79178;SDS011;68608;49.904;16.436;2023-08-07T09:42:03;3.10;;;2.83;;
79178;SDS011;68608;49.904;16.436;2023-08-07T09:44:35;3.13;;;2.83;;
79178;SDS011;68608;49.904;16.436;2023-08-07T09:47:10;3.03;;;2.42;;
79178;SDS011;68608;49.904;16.436;2023-08-07T09:49:36;2.30;;;2.10;;
79178;SDS011;68608;49.904;16.436;2023-08-07T09:52:04;2.35;;;2.15;;
79178;SDS011;68608;49.904;16.436;2023-08-07T09:54:32;2.97;;;2.72;;
79178;SDS011;68608;49.904;16.436;2023-08-07T09:56:59;2.65;;;2.30;;
79178;SDS011;68608;49.904;16.436;2023-08-07T09:59:26;3.15;;;2.58;;
79178;SDS011;68608;49.904;16.436;2023-08-07T10:01:52;2.30;;;2.10;;
79178;SDS011;68608;49.904;16.436;2023-08-07T10:04:19;2.75;;;2.40;;
79178;SDS011;68608;49.904;16.436;2023-08-07T10:06:45;2.47;;;2.28;;
79178;SDS011;68608;49.904;16.436;2023-08-07T10:09:12;2.50;;;2.30;;
79178;SDS011;68608;49.904;16.436;2023-08-07T10:11:38;2.40;;;2.20;;
79178;SDS011;68608;49.904;16.436;2023-08-07T10:14:08;3.15;;;2.47;;
79178;SDS011;68608;49.904;16.436;2023-08-07T10:16:34;2.80;;;2.60;;
79178;SDS011;68608;49.904;16.436;2023-08-07T10:19:08;2.50;;;2.30;;
79178;SDS011;68608;49.904;16.436;2023-08-07T10:21:35;3.15;;;2.85;;
79178;SDS011;68608;49.904;16.436;2023-08-07T10:24:05;2.92;;;2.17;;
79178;SDS011;68608;49.904;16.436;2023-08-07T10:26:34;3.03;;;2.80;;
79178;SDS011;68608;49.904;16.436;2023-08-07T10:29:04;2.80;;;2.60;;
79178;SDS011;68608;49.904;16.436;2023-08-07T10:31:31;3.08;;;2.85;;
79178;SDS011;68608;49.904;16.436;2023-08-07T10:33:59;3.88;;;2.67;;
79178;SDS011;68608;49.904;16.436;2023-08-07T10:36:31;2.67;;;2.47;;
79178;SDS011;68608;49.904;16.436;2023-08-07T10:39:08;3.83;;;2.67;;
79178;SDS011;68608;49.904;16.436;2023-08-07T10:41:42;2.67;;;2.30;;
79178;SDS011;68608;49.904;16.436;2023-08-07T10:44:23;2.40;;;2.20;;
79178;SDS011;68608;49.904;16.436;2023-08-07T10:46:52;2.10;;;2.00;;
79178;SDS011;68608;49.904;16.436;2023-08-07T10:49:38;2.60;;;1.73;;
79178;SDS011;68608;49.904;16.436;2023-08-07T10:52:14;2.20;;;2.10;;
79178;SDS011;68608;49.904;16.436;2023-08-07T10:54:49;2.58;;;2.38;;
79178;SDS011;68608;49.904;16.436;2023-08-07T10:57:16;2.50;;;2.30;;
79178;SDS011;68608;49.904;16.436;2023-08-07T11:02:12;2.55;;;2.35;;
79178;SDS011;68608;49.904;16.436;2023-08-07T11:04:38;1.98;;;1.80;;
79178;SDS011;68608;49.904;16.436;2023-08-07T11:07:04;2.33;;;2.13;;
79178;SDS011;68608;49.904;16.436;2023-08-07T11:09:31;2.53;;;1.95;;
79178;SDS011;68608;49.904;16.436;2023-08-07T11:12:00;2.45;;;1.95;;
79178;SDS011;68608;49.904;16.436;2023-08-07T11:14:26;4.25;;;2.25;;
79178;SDS011;68608;49.904;16.436;2023-08-07T11:16:52;3.30;;;2.22;;
79178;SDS011;68608;49.904;16.436;2023-08-07T11:19:18;2.65;;;2.45;;
79178;SDS011;68608;49.904;16.436;2023-08-07T11:21:45;2.88;;;2.67;;
79178;SDS011;68608;49.904;16.436;2023-08-07T11:24:14;2.10;;;1.90;;
79178;SDS011;68608;49.904;16.436;2023-08-07T11:26:44;2.45;;;2.25;;
79178;SDS011;68608;49.904;16.436;2023-08-07T11:29:15;2.97;;;2.38;;
79178;SDS011;68608;49.904;16.436;2023-08-07T11:31:43;3.15;;;2.53;;
79178;SDS011;68608;49.904;16.436;2023-08-07T11:34:11;2.72;;;2.53;;
79178;SDS011;68608;49.904;16.436;2023-08-07T11:36:42;2.88;;;2.45;;
79178;SDS011;68608;49.904;16.436;2023-08-07T11:39:10;2.50;;;2.30;;
79178;SDS011;68608;49.904;16.436;2023-08-07T11:41:36;2.53;;;2.40;;
79178;SDS011;68608;49.904;16.436;2023-08-07T11:44:03;2.90;;;2.70;;
79178;SDS011;68608;49.904;16.436;2023-08-07T11:46:29;2.50;;;2.30;;
79178;SDS011;68608;49.904;16.436;2023-08-07T11:48:55;3.08;;;2.83;;
79178;SDS011;68608;49.904;16.436;2023-08-07T11:51:22;2.60;;;2.40;;
79178;SDS011;68608;49.904;16.436;2023-08-07T11:53:49;3.10;;;2.80;;
79178;SDS011;68608;49.904;16.436;2023-08-07T11:56:15;2.65;;;2.20;;
79178;SDS011;68608;49.904;16.436;2023-08-07T11:58:43;2.33;;;2.13;;
79178;SDS011;68608;49.904;16.436;2023-08-07T12:01:11;3.30;;;1.70;;
79178;SDS011;68608;49.904;16.436;2023-08-07T12:03:38;2.30;;;2.10;;
79178;SDS011;68608;49.904;16.436;2023-08-07T12:06:05;1.70;;;1.58;;
79178;SDS011;68608;49.904;16.436;2023-08-07T12:08:33;2.13;;;1.60;;
79178;SDS011;68608;49.904;16.436;2023-08-07T12:11:00;1.63;;;1.52;;
79178;SDS011;68608;49.904;16.436;2023-08-07T12:13:27;1.63;;;1.52;;
79178;SDS011;68608;49.904;16.436;2023-08-07T12:15:53;1.70;;;1.60;;
79178;SDS011;68608;49.904;16.436;2023-08-07T12:18:20;2.30;;;2.10;;
79178;SDS011;68608;49.904;16.436;2023-08-07T12:20:48;1.42;;;1.35;;
79178;SDS011;68608;49.904;16.436;2023-08-07T12:23:15;2.00;;;1.65;;
79178;SDS011;68608;49.904;16.436;2023-08-07T12:25:44;1.73;;;1.50;;
79178;SDS011;68608;49.904;16.436;2023-08-07T12:28:10;1.83;;;1.73;;
79178;SDS011;68608;49.904;16.436;2023-08-07T12:30:37;1.70;;;1.55;;
79178;SDS011;68608;49.904;16.436;2023-08-07T12:33:03;2.63;;;1.70;;
79178;SDS011;68608;49.904;16.436;2023-08-07T12:35:30;1.27;;;1.10;;
79178;SDS011;68608;49.904;16.436;2023-08-07T12:37:56;2.17;;;2.08;;
79178;SDS011;68608;49.904;16.436;2023-08-07T12:40:22;2.83;;;1.35;;
79178;SDS011;68608;49.904;16.436;2023-08-07T12:42:49;1.60;;;1.50;;
79178;SDS011;68608;49.904;16.436;2023-08-07T12:45:16;1.58;;;1.48;;
79178;SDS011;68608;49.904;16.436;2023-08-07T12:47:44;1.92;;;1.15;;
79178;SDS011;68608;49.904;16.436;2023-08-07T12:50:10;2.00;;;1.77;;
79178;SDS011;68608;49.904;16.436;2023-08-07T12:52:36;3.50;;;1.73;;
79178;SDS011;68608;49.904;16.436;2023-08-07T12:55:03;2.70;;;1.20;;
79178;SDS011;68608;49.904;16.436;2023-08-07T12:57:30;1.05;;;0.95;;
79178;SDS011;68608;49.904;16.436;2023-08-07T12:59:57;1.05;;;0.80;;
79178;SDS011;68608;49.904;16.436;2023-08-07T13:02:23;1.95;;;1.17;;
79178;SDS011;68608;49.904;16.436;2023-08-07T13:04:49;1.60;;;1.50;;
79178;SDS011;68608;49.904;16.436;2023-08-07T13:07:15;1.25;;;1.20;;
79178;SDS011;68608;49.904;16.436;2023-08-07T13:09:42;1.92;;;1.70;;
79178;SDS011;68608;49.904;16.436;2023-08-07T13:12:08;1.25;;;1.10;;
79178;SDS011;68608;49.904;16.436;2023-08-07T13:14:34;1.70;;;1.60;;
79178;SDS011;68608;49.904;16.436;2023-08-07T13:17:00;1.70;;;1.60;;
79178;SDS011;68608;49.904;16.436;2023-08-07T13:19:26;1.45;;;1.20;;
79178;SDS011;68608;49.904;16.436;2023-08-07T13:21:52;2.08;;;1.58;;
79178;SDS011;68608;49.904;16.436;2023-08-07T13:24:18;2.70;;;1.63;;
79178;SDS011;68608;49.904;16.436;2023-08-07T13:26:44;1.58;;;1.35;;
79178;SDS011;68608;49.904;16.436;2023-08-07T13:29:13;2.15;;;1.30;;
79178;SDS011;68608;49.904;16.436;2023-08-07T13:31:40;1.60;;;1.50;;
79178;SDS011;68608;49.904;16.436;2023-08-07T13:34:06;1.42;;;1.33;;
79178;SDS011;68608;49.904;16.436;2023-08-07T13:36:36;2.10;;;1.50;;
79178;SDS011;68608;49.904;16.436;2023-08-07T13:39:05;1.52;;;1.42;;
79178;SDS011;68608;49.904;16.436;2023-08-07T13:41:31;2.08;;;1.27;;
79178;SDS011;68608;49.904;16.436;2023-08-07T13:43:58;1.67;;;1.58;;
79178;SDS011;68608;49.904;16.436;2023-08-07T13:46:24;1.63;;;1.52;;
79178;SDS011;68608;49.904;16.436;2023-08-07T13:48:50;1.75;;;1.20;;
79178;SDS011;68608;49.904;16.436;2023-08-07T13:51:16;0.90;;;0.90;;
79178;SDS011;68608;49.904;16.436;2023-08-07T13:53:43;1.35;;;1.25;;
79178;SDS011;68608;49.904;16.436;2023-08-07T13:56:09;1.42;;;1.02;;
79178;SDS011;68608;49.904;16.436;2023-08-07T13:58:38;3.08;;;1.50;;
79178;SDS011;68608;49.904;16.436;2023-08-07T14:01:04;1.17;;;1.17;;
79178;SDS011;68608;49.904;16.436;2023-08-07T14:03:30;0.65;;;0.65;;
79178;SDS011;68608;49.904;16.436;2023-08-07T14:05:56;1.15;;;0.70;;
79178;SDS011;68608;49.904;16.436;2023-08-07T14:08:23;0.80;;;0.70;;
79178;SDS011;68608;49.904;16.436;2023-08-07T14:10:49;1.35;;;1.25;;
79178;SDS011;68608;49.904;16.436;2023-08-07T14:13:15;2.63;;;0.80;;
79178;SDS011;68608;49.904;16.436;2023-08-07T14:15:41;1.42;;;0.90;;
79178;SDS011;68608;49.904;16.436;2023-08-07T14:18:07;0.90;;;0.85;;
79178;SDS011;68608;49.904;16.436;2023-08-07T14:20:35;0.73;;;0.73;;
79178;SDS011;68608;49.904;16.436;2023-08-07T14:23:02;0.65;;;0.63;;
79178;SDS011;68608;49.904;16.436;2023-08-07T14:25:28;0.93;;;0.80;;
79178;SDS011;68608;49.904;16.436;2023-08-07T14:27:54;0.63;;;0.63;;
79178;SDS011;68608;49.904;16.436;2023-08-07T14:30:21;0.88;;;0.88;;
79178;SDS011;68608;49.904;16.436;2023-08-07T14:32:47;0.60;;;0.60;;
79178;SDS011;68608;49.904;16.436;2023-08-07T14:35:15;1.20;;;1.10;;
79178;SDS011;68608;49.904;16.436;2023-08-07T14:37:42;2.13;;;0.57;;